Time;durP1;ratioP1;P1;durP2;ratioP2;P2;SDS_P1;SDS_P2;PMS_P1;PMS_P2;Temp;Humidity;BMP_temperature;BMP_pressure;BME280_temperature;BME280_humidity;BME280_pressure;Samples;Min_cycle;Max_cycle;Signal;HPM_P1;HPM_P2
2021/08/27 00:00:07;;;;;;;;;;;;;;;14.56;100.00;99362.02;1764185;80;20181;-81
2021/08/27 00:02:32;;;;;;;;;;;;;;;14.61;100.00;99358.27;1730480;80;21641;-82
2021/08/27 00:04:58;;;;;;;;;;;;;;;14.52;100.00;99356.80;1763299;80;20130;-83
2021/08/27 00:07:25;;;;;;;;;;;;;;;14.48;100.00;99359.53;1762597;80;21080;-84
2021/08/27 00:09:50;;;;;;;;;;;;;;;14.54;100.00;99356.07;1778269;80;20220;-83
2021/08/27 00:12:17;;;;;;;;;;;;;;;14.61;100.00;99360.13;1753318;80;20178;-83
2021/08/27 00:14:42;;;;;;;;;;;;;;;14.57;100.00;99362.31;1750755;81;20175;-82
2021/08/27 00:17:08;;;;;;;;;;;;;;;14.55;100.00;99361.70;1735819;81;20135;-82
2021/08/27 00:19:33;;;;;;;;;;;;;;;14.52;100.00;99362.11;1761788;80;21087;-82
2021/08/27 00:21:59;;;;;;;;;;;;;;;14.49;100.00;99371.28;1768024;80;20132;-83
2021/08/27 00:24:24;;;;;;;;;;;;;;;14.30;100.00;99364.91;1740954;80;20171;-83
2021/08/27 00:26:50;;;;;;;;;;;;;;;14.34;100.00;99366.16;1769207;80;20182;-82
2021/08/27 00:29:16;;;;;;;;;;;;;;;14.35;100.00;99366.45;1776093;80;20139;-82
2021/08/27 00:31:41;;;;;;;;;;;;;;;14.33;100.00;99376.46;1768370;80;22687;-81
2021/08/27 00:34:07;;;;;;;;;;;;;;;14.16;100.00;99385.80;1761576;80;20123;-80
2021/08/27 00:36:32;;;;;;;;;;;;;;;14.26;100.00;99384.94;1769741;78;20145;-81
2021/08/27 00:38:59;;;;;;;;;;;;;;;14.31;100.00;99390.46;1751200;80;20132;-80
2021/08/27 00:41:26;;;;;;;;;;;;;;;14.28;100.00;99393.52;1740787;80;20201;-80
2021/08/27 00:43:52;;;;;;;;;;;;;;;14.32;100.00;99396.06;1763894;80;21239;-80
2021/08/27 00:46:18;;;;;;;;;;;;;;;14.38;100.00;99397.63;1776475;79;20127;-80
2021/08/27 00:48:43;;;;;;;;;;;;;;;14.38;100.00;99400.29;1744554;80;20234;-80
2021/08/27 00:51:10;;;;;;;;;;;;;;;14.44;100.00;99406.13;1752410;80;20339;-80
2021/08/27 00:53:35;;;;;;;;;;;;;;;14.47;100.00;99413.70;1748717;81;20491;-79
2021/08/27 00:56:01;;;;;;;;;;;;;;;14.51;100.00;99416.25;1725162;81;21148;-79
2021/08/27 00:58:27;;;;;;;;;;;;;;;14.56;100.00;99419.14;1744886;81;20160;-79
2021/08/27 01:00:53;;;;;;;;;;;;;;;14.58;100.00;99419.75;1723105;81;20184;-79
2021/08/27 01:03:18;;;;;;;;;;;;;;;14.58;100.00;99421.08;1749720;80;20179;-80
2021/08/27 01:05:53;;;;;;;;;;;;;;;14.63;100.00;99433.28;1714847;81;20132;-80
2021/08/27 01:08:22;;;;;;;;;;;;;;;14.66;100.00;99441.38;1763100;80;21259;-79
2021/08/27 01:10:56;;;;;;;;;;;;;;;14.63;100.00;99442.58;1768037;80;20110;-80
2021/08/27 01:13:27;;;;;;;;;;;;;;;14.66;100.00;99445.36;1747883;80;20138;-79
2021/08/27 01:16:06;;;;;;;;;;;;;;;14.66;100.00;99449.34;1753582;80;20162;-79
2021/08/27 01:18:40;;;;;;;;;;;;;;;14.57;100.00;99450.51;1771441;79;20236;-79
2021/08/27 01:21:12;;;;;;;;;;;;;;;14.47;100.00;99457.53;1743475;80;21254;-80
2021/08/27 01:23:45;;;;;;;;;;;;;;;14.52;100.00;99456.42;1772794;79;20375;-79
2021/08/27 01:26:10;;;;;;;;;;;;;;;14.48;100.00;99455.17;1775108;79;20229;-79
2021/08/27 01:28:39;;;;;;;;;;;;;;;14.44;100.00;99453.95;1774662;79;20634;-79
2021/08/27 01:31:28;;;;;;;;;;;;;;;14.43;100.00;99448.31;1762246;80;20122;-79
2021/08/27 01:34:03;;;;;;;;;;;;;;;14.46;100.00;99455.37;1766042;80;21136;-79
2021/08/27 01:36:29;;;;;;;;;;;;;;;14.57;100.00;99449.98;1770625;80;20200;-79
2021/08/27 01:38:55;;;;;;;;;;;;;;;14.61;100.00;99453.93;1737247;80;20136;-79
2021/08/27 01:41:20;;;;;;;;;;;;;;;14.61;100.00;99457.11;1765161;79;20117;-82
2021/08/27 01:43:46;;;;;;;;;;;;;;;14.60;100.00;99449.63;1734888;80;20483;-82
2021/08/27 01:46:12;;;;;;;;;;;;;;;14.66;100.00;99454.66;1760981;80;22071;-81
2021/08/27 01:48:37;;;;;;;;;;;;;;;14.57;100.00;99463.28;1763662;80;20117;-80
2021/08/27 01:51:04;;;;;;;;;;;;;;;14.53;100.00;99462.05;1738384;80;20196;-80
2021/08/27 01:53:30;;;;;;;;;;;;;;;14.55;100.00;99470.64;1761240;80;20302;-80
2021/08/27 01:55:57;;;;;;;;;;;;;;;14.55;100.00;99466.66;1765917;80;20469;-80
2021/08/27 01:58:25;;;;;;;;;;;;;;;14.46;100.00;99466.52;1763280;80;21077;-81
2021/08/27 02:00:50;;;;;;;;;;;;;;;14.39;100.00;99461.67;1759184;79;20145;-79
2021/08/27 02:03:16;;;;;;;;;;;;;;;14.33;100.00;99461.45;1763446;80;20190;-80
2021/08/27 02:05:41;;;;;;;;;;;;;;;14.26;100.00;99457.97;1764420;80;20147;-79
2021/08/27 02:08:07;;;;;;;;;;;;;;;14.27;100.00;99463.57;1764681;80;20421;-79
2021/08/27 02:10:33;;;;;;;;;;;;;;;14.23;100.00;99462.34;1761552;80;21016;-80
2021/08/27 02:12:59;;;;;;;;;;;;;;;14.27;100.00;99466.22;1736886;80;20153;-80
2021/08/27 02:15:24;;;;;;;;;;;;;;;14.19;100.00;99458.43;1773905;80;20183;-79
2021/08/27 02:17:50;;;;;;;;;;;;;;;14.04;100.00;99466.52;1764399;79;20139;-79
2021/08/27 02:20:17;;;;;;;;;;;;;;;13.96;100.00;99463.50;1770518;79;20301;-81
2021/08/27 02:22:45;;;;;;;;;;;;;;;13.83;100.00;99463.44;1741188;80;20759;-81
2021/08/27 02:25:13;;;;;;;;;;;;;;;13.85;100.00;99467.23;1764204;80;20506;-80
2021/08/27 02:27:39;;;;;;;;;;;;;;;13.97;100.00;99468.33;1769852;80;20165;-80
2021/08/27 02:30:08;;;;;;;;;;;;;;;14.07;100.00;99470.62;1764415;80;20534;-80
2021/08/27 02:32:33;;;;;;;;;;;;;;;14.12;100.00;99468.19;1765600;80;20610;-81
2021/08/27 02:35:00;;;;;;;;;;;;;;;14.15;100.00;99464.66;1743743;80;21087;-79
2021/08/27 02:37:27;;;;;;;;;;;;;;;14.18;100.00;99463.42;1764243;80;20112;-80
2021/08/27 02:39:52;;;;;;;;;;;;;;;14.21;100.00;99461.70;1773069;79;20133;-80
2021/08/27 02:42:19;;;;;;;;;;;;;;;14.25;100.00;99462.95;1767578;80;20163;-80
2021/08/27 02:44:45;;;;;;;;;;;;;;;14.26;100.00;99459.30;1765081;79;20217;-80
2021/08/27 02:47:10;;;;;;;;;;;;;;;14.35;100.00;99451.96;1735790;80;22209;-80
2021/08/27 02:49:38;;;;;;;;;;;;;;;14.35;100.00;99454.61;1737574;80;20185;-80
2021/08/27 02:52:15;;;;;;;;;;;;;;;14.39;100.00;99449.72;1739642;80;20160;-79
2021/08/27 02:55:02;;;;;;;;;;;;;;;14.42;100.00;99451.98;1737557;79;20131;-81
2021/08/27 02:57:27;;;;;;;;;;;;;;;14.42;100.00;99453.30;1768358;80;20940;-82
2021/08/27 02:59:52;;;;;;;;;;;;;;;14.43;100.00;99458.42;1770814;80;21082;-82
2021/08/27 03:02:18;;;;;;;;;;;;;;;14.48;100.00;99459.99;1767822;80;20160;-82
2021/08/27 03:04:53;;;;;;;;;;;;;;;14.54;100.00;99454.38;1768231;80;20154;-81
2021/08/27 03:07:19;;;;;;;;;;;;;;;14.55;100.00;99454.70;1765474;80;20210;-81
2021/08/27 03:10:05;;;;;;;;;;;;;;;14.57;100.00;99449.98;1735830;80;20527;-81
2021/08/27 03:12:44;;;;;;;;;;;;;;;14.62;100.00;99452.92;1762712;80;20945;-81
2021/08/27 03:15:15;;;;;;;;;;;;;;;14.58;100.00;99460.94;1764691;79;20141;-80
2021/08/27 03:17:41;;;;;;;;;;;;;;;14.57;100.00;99463.28;1751721;80;20185;-81
2021/08/27 03:20:13;;;;;;;;;;;;;;;14.63;100.00;99467.83;1735249;80;20158;-81
2021/08/27 03:22:59;;;;;;;;;;;;;;;14.60;100.00;99460.25;1761810;80;20219;-81
2021/08/27 03:25:25;;;;;;;;;;;;;;;14.68;100.00;99453.94;1767048;80;21156;-82
2021/08/27 03:27:53;;;;;;;;;;;;;;;14.70;100.00;99472.66;1763307;80;20281;-82
2021/08/27 03:30:24;;;;;;;;;;;;;;;14.64;100.00;99473.98;1769059;80;20172;-82
2021/08/27 03:32:52;;;;;;;;;;;;;;;14.52;100.00;99477.67;1757773;80;20255;-82
2021/08/27 03:35:19;;;;;;;;;;;;;;;14.54;100.00;99481.78;1764797;79;20203;-82
2021/08/27 03:37:44;;;;;;;;;;;;;;;14.63;100.00;99481.11;1764377;80;21069;-82
2021/08/27 03:40:11;;;;;;;;;;;;;;;14.68;100.00;99476.53;1762997;80;20842;-81
2021/08/27 03:42:37;;;;;;;;;;;;;;;14.70;100.00;99473.99;1758861;80;20143;-84
2021/08/27 03:45:03;;;;;;;;;;;;;;;14.63;100.00;99479.78;1764845;80;20620;-84
2021/08/27 03:47:31;;;;;;;;;;;;;;;14.64;100.00;99485.94;1770132;80;20240;-83
2021/08/27 03:49:57;;;;;;;;;;;;;;;14.56;100.00;99482.91;1757338;80;21262;-83
2021/08/27 03:52:22;;;;;;;;;;;;;;;14.52;100.00;99479.81;1770849;80;20151;-84
2021/08/27 03:54:50;;;;;;;;;;;;;;;14.44;100.00;99476.53;1770472;79;20276;-84
2021/08/27 03:57:16;;;;;;;;;;;;;;;14.39;100.00;99474.47;1764292;79;20172;-84
2021/08/27 03:59:42;;;;;;;;;;;;;;;14.38;100.00;99474.66;1729828;80;20171;-84
2021/08/27 04:02:12;;;;;;;;;;;;;;;14.44;100.00;99473.88;1747133;80;20955;-83
2021/08/27 04:04:39;;;;;;;;;;;;;;;14.54;100.00;99466.33;1735663;80;20966;-83
2021/08/27 04:07:05;;;;;;;;;;;;;;;14.56;100.00;99462.98;1766961;80;20184;-83
2021/08/27 04:09:32;;;;;;;;;;;;;;;14.58;100.00;99470.23;1734294;80;20204;-83
2021/08/27 04:11:59;;;;;;;;;;;;;;;14.58;100.00;99470.23;1767118;80;20493;-82
2021/08/27 04:14:25;;;;;;;;;;;;;;;14.65;100.00;99476.44;1753682;80;21076;-83
2021/08/27 04:16:50;;;;;;;;;;;;;;;14.72;100.00;99469.28;1737502;80;20141;-82
2021/08/27 04:19:16;;;;;;;;;;;;;;;14.79;100.00;99477.79;1733203;81;20176;-82
2021/08/27 04:21:42;;;;;;;;;;;;;;;14.77;100.00;99475.33;1748001;80;20860;-82
2021/08/27 04:24:09;;;;;;;;;;;;;;;14.74;100.00;99481.56;1761621;80;20214;-82
2021/08/27 04:26:34;;;;;;;;;;;;;;;14.82;100.00;99486.69;1738616;81;21878;-82
2021/08/27 04:29:00;;;;;;;;;;;;;;;14.79;100.00;99484.44;1711847;81;21228;-82
2021/08/27 04:31:27;;;;;;;;;;;;;;;14.77;100.00;99489.14;1709341;81;20475;-81
2021/08/27 04:33:55;;;;;;;;;;;;;;;14.81;100.00;99499.70;1740929;81;20154;-82
2021/08/27 04:36:21;;;;;;;;;;;;;;;14.79;100.00;99493.73;1734151;81;20557;-82
2021/08/27 04:38:50;;;;;;;;;;;;;;;14.77;100.00;99490.47;1713643;81;21103;-82
2021/08/27 04:41:15;;;;;;;;;;;;;;;14.69;100.00;99493.60;1741476;81;20119;-82
2021/08/27 04:43:42;;;;;;;;;;;;;;;14.67;100.00;99496.98;1738890;81;20548;-81
2021/08/27 04:46:10;;;;;;;;;;;;;;;14.67;100.00;99502.30;1741003;81;20610;-82
2021/08/27 04:48:35;;;;;;;;;;;;;;;14.66;100.00;99503.30;1740495;81;20545;-81
2021/08/27 04:51:01;;;;;;;;;;;;;;;14.60;100.00;99501.92;1732688;81;21118;-81
2021/08/27 04:53:28;;;;;;;;;;;;;;;14.59;100.00;99510.42;1739579;80;20206;-81
2021/08/27 04:55:56;;;;;;;;;;;;;;;14.64;100.00;99515.98;1738365;80;21074;-81
2021/08/27 04:58:24;;;;;;;;;;;;;;;14.65;100.00;99519.45;1739060;81;20567;-81
2021/08/27 05:00:49;;;;;;;;;;;;;;;14.65;100.00;99516.30;1747252;81;20546;-80
2021/08/27 05:03:16;;;;;;;;;;;;;;;14.68;100.00;99525.20;1738551;81;21126;-81
2021/08/27 05:05:42;;;;;;;;;;;;;;;14.81;100.00;99527.61;1737446;81;20213;-80
2021/08/27 05:08:09;;;;;;;;;;;;;;;14.86;100.00;99530.48;1736689;80;20679;-80
2021/08/27 05:10:34;;;;;;;;;;;;;;;14.89;100.00;99538.05;1740145;80;20183;-80
2021/08/27 05:13:00;;;;;;;;;;;;;;;14.91;100.00;99530.69;1741844;81;20126;-81
2021/08/27 05:15:26;;;;;;;;;;;;;;;14.94;100.00;99536.13;1727632;81;21273;-80
2021/08/27 05:17:51;;;;;;;;;;;;;;;14.95;100.00;99539.10;1732460;82;20431;-80
2021/08/27 05:20:17;;;;;;;;;;;;;;;15.00;100.00;99542.78;1753070;80;20130;-80
2021/08/27 05:22:46;;;;;;;;;;;;;;;15.04;100.00;99538.72;1752197;80;20125;-82
2021/08/27 05:25:12;;;;;;;;;;;;;;;15.12;100.00;99542.19;1747026;80;20110;-82
2021/08/27 05:27:38;;;;;;;;;;;;;;;15.16;100.00;99546.09;1750070;81;21118;-81
2021/08/27 05:30:06;;;;;;;;;;;;;;;15.21;100.00;99547.63;1746013;81;20128;-82
2021/08/27 05:32:33;;;;;;;;;;;;;;;15.22;100.00;99545.30;1745691;80;20158;-81
2021/08/27 05:34:59;;;;;;;;;;;;;;;15.20;100.00;99547.34;1748843;81;20198;-81
2021/08/27 05:37:24;;;;;;;;;;;;;;;15.25;100.00;99555.53;1750057;81;20138;-81
2021/08/27 05:39:51;;;;;;;;;;;;;;;15.25;100.00;99550.22;1749474;81;21088;-81
2021/08/27 05:42:18;;;;;;;;;;;;;;;15.15;100.00;99551.09;1748963;81;20130;-81
2021/08/27 05:44:44;;;;;;;;;;;;;;;15.14;100.00;99553.47;1744700;81;20229;-82
2021/08/27 05:47:09;;;;;;;;;;;;;;;15.11;100.00;99537.91;1745947;80;20153;-82
2021/08/27 05:49:36;;;;;;;;;;;;;;;15.14;100.00;99550.81;1744617;81;20157;-82
2021/08/27 05:52:02;;;;;;;;;;;;;;;15.17;100.00;99547.75;1744523;81;21444;-82
2021/08/27 05:54:28;;;;;;;;;;;;;;;15.18;100.00;99542.72;1748741;81;20183;-82
2021/08/27 05:56:54;;;;;;;;;;;;;;;15.22;100.00;99545.30;1749485;81;20142;-83
2021/08/27 05:59:20;;;;;;;;;;;;;;;15.28;100.00;99550.33;1710291;81;20169;-83
2021/08/27 06:01:46;;;;;;;;;;;;;;;15.22;100.00;99554.61;1709161;81;20544;-83
2021/08/27 06:04:13;;;;;;;;;;;;;;;15.23;100.00;99554.92;1748838;80;21080;-83
2021/08/27 06:06:40;;;;;;;;;;;;;;;15.20;100.00;99548.16;1750682;81;20090;-83
2021/08/27 06:09:06;;;;;;;;;;;;;;;15.10;100.00;99542.91;1747402;80;20186;-83
2021/08/27 06:11:36;;;;;;;;;;;;;;;15.05;100.00;99549.64;1712950;81;20216;-83
2021/08/27 06:14:05;;;;;;;;;;;;;;;15.06;100.00;99549.15;1744973;81;20165;-83
2021/08/27 06:16:30;;;;;;;;;;;;;;;15.04;100.00;99549.35;1750950;81;21108;-83
2021/08/27 06:18:58;;;;;;;;;;;;;;;15.15;100.00;99555.09;1750504;81;20405;-83
2021/08/27 06:21:24;;;;;;;;;;;;;;;15.16;100.00;99559.40;1751875;81;20207;-83
2021/08/27 06:23:52;;;;;;;;;;;;;;;15.10;100.00;99573.49;1747702;81;20290;-83
2021/08/27 06:26:17;;;;;;;;;;;;;;;15.10;100.00;99578.81;1747043;81;20644;-82
2021/08/27 06:28:42;;;;;;;;;;;;;;;15.07;100.00;99576.88;1743904;81;21059;-81
2021/08/27 06:31:10;;;;;;;;;;;;;;;14.90;100.00;99568.42;1749031;81;20290;-82
2021/08/27 06:33:36;;;;;;;;;;;;;;;14.86;100.00;99565.84;1748097;80;20099;-82
2021/08/27 06:36:01;;;;;;;;;;;;;;;14.97;100.00;99568.96;1746482;81;20135;-82
2021/08/27 06:38:28;;;;;;;;;;;;;;;14.92;100.00;99572.22;1746084;81;20186;-82
2021/08/27 06:41:01;;;;;;;;;;;;;;;14.92;100.00;99566.90;1744787;81;21978;-81
2021/08/27 06:43:27;;;;;;;;;;;;;;;14.94;100.00;99568.84;1749724;80;20538;-81
2021/08/27 06:45:55;;;;;;;;;;;;;;;14.95;100.00;99569.16;1752438;81;20232;-82
2021/08/27 06:48:21;;;;;;;;;;;;;;;14.91;100.00;99573.22;1750482;80;20526;-83
2021/08/27 06:50:47;;;;;;;;;;;;;;;15.00;100.00;99573.36;1747395;80;20490;-83
2021/08/27 06:53:14;;;;;;;;;;;;;;;15.13;100.00;99581.07;1742861;80;21266;-83
2021/08/27 06:55:41;;;;;;;;;;;;;;;15.06;100.00;99583.20;1744308;81;20200;-83
2021/08/27 06:58:07;;;;;;;;;;;;;;;15.13;100.00;99589.05;1752689;80;20137;-82
2021/08/27 07:00:33;;;;;;;;;;;;;;;15.04;100.00;99597.22;1712782;81;20308;-86
2021/08/27 07:02:58;;;;;;;;;;;;;;;15.15;100.00;99598.97;1747738;80;20166;-84
2021/08/27 07:05:26;;;;;;;;;;;;;;;15.13;100.00;99587.72;1746153;81;21068;-83
2021/08/27 07:07:52;;;;;;;;;;;;;;;15.19;100.00;99604.21;1749089;81;20182;-84
2021/08/27 07:10:20;;;;;;;;;;;;;;;15.29;100.00;99609.98;1748784;81;20197;-85
2021/08/27 07:12:48;;;;;;;;;;;;;;;15.34;100.00;99618.17;1747814;80;21098;-85
2021/08/27 07:15:16;;;;;;;;;;;;;;;15.35;100.00;99619.83;1741916;80;20170;-85
2021/08/27 07:17:43;;;;;;;;;;;;;;;15.41;100.00;99611.05;1711858;81;21072;-85
2021/08/27 07:20:09;;;;;;;;;;;;;;;15.41;100.00;99609.71;1741159;80;20126;-82
2021/08/27 07:22:35;;;;;;;;;;;;;;;15.47;100.00;99612.58;1751186;81;20212;-83
2021/08/27 07:25:03;;;;;;;;;;;;;;;15.52;100.00;99614.11;1748939;80;20574;-86
2021/08/27 07:27:29;;;;;;;;;;;;;;;15.51;100.00;99615.16;1740903;81;20196;-85
2021/08/27 07:29:54;;;;;;;;;;;;;;;15.51;100.00;99612.49;1745790;80;21861;-84
2021/08/27 07:32:20;;;;;;;;;;;;;;;15.52;100.00;99611.45;1739819;81;20166;-83
2021/08/27 07:34:46;;;;;;;;;;;;;;;15.66;100.00;99617.63;1745750;81;20226;-84
2021/08/27 07:37:12;;;;;;;;;;;;;;;15.73;100.00;99617.12;1742183;81;20200;-83
2021/08/27 07:39:39;;;;;;;;;;;;;;;15.76;100.00;99621.53;1744490;81;20195;-84
2021/08/27 07:42:05;;;;;;;;;;;;;;;15.78;99.98;99622.69;1704796;81;21107;-82
2021/08/27 07:44:32;;;;;;;;;;;;;;;15.72;100.00;99622.98;1747663;80;20182;-88
2021/08/27 07:46:58;;;;;;;;;;;;;;;15.78;99.06;99624.86;1780349;79;20177;-84
2021/08/27 07:49:24;;;;;;;;;;;;;;;15.77;99.41;99617.88;1772351;80;20135;-84
2021/08/27 07:51:51;;;;;;;;;;;;;;;15.85;100.00;99622.69;1777426;80;20177;-84
2021/08/27 07:54:19;;;;;;;;;;;;;;;16.03;98.59;99629.56;1764781;80;21059;-83
2021/08/27 07:56:44;;;;;;;;;;;;;;;16.10;96.96;99630.39;1757519;80;20181;-84
2021/08/27 07:59:10;;;;;;;;;;;;;;;16.15;96.94;99637.24;1727452;80;20155;-84
2021/08/27 08:01:35;;;;;;;;;;;;;;;16.32;96.50;99643.50;1756306;80;20427;-83
2021/08/27 08:04:03;;;;;;;;;;;;;;;16.39;96.80;99649.66;1740889;80;20233;-84
2021/08/27 08:06:31;;;;;;;;;;;;;;;16.42;97.09;99643.07;1767309;80;21243;-82
2021/08/27 08:08:59;;;;;;;;;;;;;;;16.61;95.63;99650.72;1761705;80;20149;-92
2021/08/27 08:11:24;;;;;;;;;;;;;;;16.54;94.81;99649.94;1759290;80;20521;-88
2021/08/27 08:13:50;;;;;;;;;;;;;;;16.63;94.03;99652.69;1756176;80;20165;-84
2021/08/27 08:16:15;;;;;;;;;;;;;;;16.71;94.32;99655.12;1764064;80;20464;-83
2021/08/27 08:18:42;;;;;;;;;;;;;;;16.81;94.07;99656.85;1759380;79;21818;-81
2021/08/27 08:21:12;;;;;;;;;;;;;;;16.93;92.90;99658.90;1756825;80;20116;-81
2021/08/27 08:23:38;;;;;;;;;;;;;;;16.95;93.29;99662.16;1783159;80;20144;-83
2021/08/27 08:26:05;;;;;;;;;;;;;;;17.02;92.17;99667.78;1750306;80;20228;-83
2021/08/27 08:28:31;;;;;;;;;;;;;;;17.09;91.47;99663.78;1751141;80;20133;-81
2021/08/27 08:30:57;;;;;;;;;;;;;;;17.17;91.51;99660.86;1779143;80;21131;-82
2021/08/27 08:33:24;;;;;;;;;;;;;;;17.23;92.54;99660.55;1782224;79;20159;-83
2021/08/27 08:35:49;;;;;;;;;;;;;;;17.28;92.09;99665.25;1778018;80;20128;-85
2021/08/27 08:38:20;;;;;;;;;;;;;;;17.33;91.66;99668.09;1779529;80;20145;-84
2021/08/27 08:40:46;;;;;;;;;;;;;;;17.34;91.56;99669.70;1780139;80;20189;-82
2021/08/27 08:43:13;;;;;;;;;;;;;;;17.40;91.49;99668.86;1779158;79;21901;-83
2021/08/27 08:45:47;;;;;;;;;;;;;;;17.35;88.87;99672.69;1747060;80;20995;-82
2021/08/27 08:48:20;;;;;;;;;;;;;;;17.39;88.77;99669.91;1753671;80;20211;-85
2021/08/27 08:50:46;;;;;;;;;;;;;;;17.47;88.34;99669.66;1749935;80;20297;-83
2021/08/27 08:53:12;;;;;;;;;;;;;;;17.58;90.06;99672.17;1755060;80;20270;-80
2021/08/27 08:55:38;;;;;;;;;;;;;;;17.62;88.70;99668.55;1752704;81;21250;-84
2021/08/27 08:58:04;;;;;;;;;;;;;;;17.68;88.95;99667.19;1748522;81;20190;-83
2021/08/27 09:00:31;;;;;;;;;;;;;;;17.74;90.24;99665.00;1753384;81;20172;-83
2021/08/27 09:02:56;;;;;;;;;;;;;;;17.84;90.81;99661.84;1718639;81;20192;-81
2021/08/27 09:05:22;;;;;;;;;;;;;;;17.89;91.04;99668.72;1718387;80;20206;-85
2021/08/27 09:07:49;;;;;;;;;;;;;;;18.04;91.19;99666.27;1756376;81;21226;-83
2021/08/27 09:10:19;;;;;;;;;;;;;;;18.10;90.31;99663.54;1749737;81;20460;-85
2021/08/27 09:12:45;;;;;;;;;;;;;;;18.15;90.52;99660.22;1754800;81;20132;-82
2021/08/27 09:15:11;;;;;;;;;;;;;;;18.06;89.49;99658.84;1739196;81;20256;-83
2021/08/27 09:17:39;;;;;;;;;;;;;;;17.99;89.35;99652.72;1690461;82;20204;-86
2021/08/27 09:20:07;;;;;;;;;;;;;;;17.98;89.78;99657.26;1709616;83;21095;-84
2021/08/27 09:22:56;;;;;;;;;;;;;;;18.16;89.83;99657.02;1711186;82;20247;-85
2021/08/27 09:25:33;;;;;;;;;;;;;;;18.28;89.66;99652.59;1715330;83;20117;-85
2021/08/27 09:28:12;;;;;;;;;;;;;;;18.43;88.08;99656.28;1712076;82;20189;-84
2021/08/27 09:30:55;;;;;;;;;;;;;;;18.33;87.26;99655.95;1708748;83;20181;-82
2021/08/27 09:33:24;;;;;;;;;;;;;;;18.20;87.47;99656.36;1714759;83;21023;-83
2021/08/27 09:36:06;;;;;;;;;;;;;;;18.34;87.76;99654.92;1712402;83;20152;-82
2021/08/27 09:38:37;;;;;;;;;;;;;;;18.51;87.18;99663.20;1711704;83;20217;-81
2021/08/27 09:41:11;;;;;;;;;;;;;;;18.60;86.29;99664.02;1685764;83;21475;-82
2021/08/27 09:43:42;;;;;;;;;;;;;;;18.70;86.16;99669.38;1712043;83;20497;-83
2021/08/27 09:46:38;;;;;;;;;;;;;;;18.68;85.06;99675.48;1708677;81;21112;-83
2021/08/27 09:49:07;;;;;;;;;;;;;;;18.84;85.75;99673.55;1709511;83;20243;-84
2021/08/27 09:51:47;;;;;;;;;;;;;;;18.89;83.57;99676.40;1694611;83;20204;-78
2021/08/27 09:54:26;;;;;;;;;;;;;;;18.95;83.52;99678.19;1715569;82;20203;-82
2021/08/27 09:56:55;;;;;;;;;;;;;;;19.07;83.12;99681.47;1711896;83;20219;-83
2021/08/27 09:59:43;;;;;;;;;;;;;;;19.10;81.98;99679.69;1713781;83;21889;-82
2021/08/27 10:02:10;;;;;;;;;;;;;;;19.10;81.89;99681.03;1708105;83;20264;-82
2021/08/27 10:04:54;;;;;;;;;;;;;;;19.11;82.92;99672.77;1676373;82;35497;-82
2021/08/27 10:07:23;;;;;;;;;;;;;;;19.10;83.23;99672.47;1725166;82;20131;-83
2021/08/27 10:09:49;;;;;;;;;;;;;;;19.13;82.19;99669.88;1721945;82;20489;-83
2021/08/27 10:12:15;;;;;;;;;;;;;;;19.21;82.41;99674.91;1728290;82;21093;-83
2021/08/27 10:14:42;;;;;;;;;;;;;;;19.21;81.07;99670.90;1722765;82;20258;-83
2021/08/27 10:17:08;;;;;;;;;;;;;;;19.08;80.45;99672.38;1750712;80;20125;-83
2021/08/27 10:19:33;;;;;;;;;;;;;;;19.09;81.32;99670.02;1750912;82;20512;-82
2021/08/27 10:21:59;;;;;;;;;;;;;;;19.06;81.80;99677.96;1744603;80;20310;-82
2021/08/27 10:24:25;;;;;;;;;;;;;;;19.08;81.86;99671.05;1732728;80;21083;-82
2021/08/27 10:26:51;;;;;;;;;;;;;;;19.01;80.65;99674.62;1762013;80;20855;-81
2021/08/27 10:29:16;;;;;;;;;;;;;;;18.93;80.43;99672.25;1763310;80;20243;-82
2021/08/27 10:31:44;;;;;;;;;;;;;;;18.98;81.33;99677.73;1762943;80;20955;-82
2021/08/27 10:34:10;;;;;;;;;;;;;;;19.01;81.13;99678.63;1766053;80;20168;-82
2021/08/27 10:36:38;;;;;;;;;;;;;;;19.10;81.10;99674.34;1762065;80;21867;-82
2021/08/27 10:39:04;;;;;;;;;;;;;;;19.14;80.26;99678.18;1763210;80;20142;-82
2021/08/27 10:41:37;;;;;;;;;;;;;;;19.15;79.59;99681.97;1759442;80;20153;-82
2021/08/27 10:44:08;;;;;;;;;;;;;;;19.26;79.66;99682.27;1766456;80;20533;-82
2021/08/27 10:46:50;;;;;;;;;;;;;;;19.34;79.62;99672.09;1758450;80;20225;-82
2021/08/27 10:49:25;;;;;;;;;;;;;;;19.43;79.41;99674.44;1763775;80;21186;-83
2021/08/27 10:51:49;;;;;;;;;;;;;;;19.57;78.45;99670.53;1758123;80;20484;-81
2021/08/27 10:54:18;;;;;;;;;;;;;;;19.54;76.80;99668.31;1732108;80;20161;-81
2021/08/27 10:56:53;;;;;;;;;;;;;;;19.60;77.61;99674.63;1767784;80;20124;-81
2021/08/27 10:59:23;;;;;;;;;;;;;;;19.72;77.64;99674.95;1761819;80;20558;-81
2021/08/27 11:02:04;;;;;;;;;;;;;;;19.85;77.35;99673.16;1766135;80;22007;-82
2021/08/27 11:04:32;;;;;;;;;;;;;;;19.88;76.74;99678.06;1766735;80;20150;-82
2021/08/27 11:07:04;;;;;;;;;;;;;;;19.90;75.35;99675.96;1757235;80;20103;-82
2021/08/27 11:09:34;;;;;;;;;;;;;;;19.91;74.18;99682.97;1762481;80;20147;-82
2021/08/27 11:12:22;;;;;;;;;;;;;;;19.89;72.72;99675.69;1766658;80;20165;-82
2021/08/27 11:14:52;;;;;;;;;;;;;;;19.58;71.60;99686.07;1729411;80;22635;-81
2021/08/27 11:17:18;;;;;;;;;;;;;;;19.51;71.95;99691.52;1760580;80;20178;-81
2021/08/27 11:19:49;;;;;;;;;;;;;;;19.48;72.96;99691.98;1730465;80;20271;-84
2021/08/27 11:22:32;;;;;;;;;;;;;;;19.27;72.31;99695.44;1754558;80;20138;-83
2021/08/27 11:25:09;;;;;;;;;;;;;;;19.28;73.42;99693.56;1761646;80;20227;-83
2021/08/27 11:27:38;;;;;;;;;;;;;;;19.32;73.13;99698.78;1761879;80;20136;-83
2021/08/27 11:30:29;;;;;;;;;;;;;;;19.34;74.19;99696.18;1762226;80;20089;-83
2021/08/27 11:32:58;;;;;;;;;;;;;;;19.38;74.45;99696.01;1757145;80;20170;-83
2021/08/27 11:35:27;;;;;;;;;;;;;;;19.40;76.61;99686.94;1764621;80;20157;-83
2021/08/27 11:37:57;;;;;;;;;;;;;;;19.43;76.64;99697.20;1758063;80;20203;-83
2021/08/27 11:40:23;;;;;;;;;;;;;;;19.50;77.00;99693.39;1752322;80;20964;-82
2021/08/27 11:42:55;;;;;;;;;;;;;;;19.38;76.26;99700.02;1728746;80;20143;-81
2021/08/27 11:45:21;;;;;;;;;;;;;;;19.45;77.52;99692.42;1754291;80;20138;-82
2021/08/27 11:47:50;;;;;;;;;;;;;;;19.51;78.19;99696.88;1726043;80;20111;-82
2021/08/27 11:50:39;;;;;;;;;;;;;;;19.63;77.34;99697.75;1751880;80;20221;-82
2021/08/27 11:53:06;;;;;;;;;;;;;;;19.65;75.29;99695.66;1757684;80;21336;-82
2021/08/27 11:55:34;;;;;;;;;;;;;;;19.78;75.20;99688.51;1754060;80;20730;-82
2021/08/27 11:58:03;;;;;;;;;;;;;;;19.89;76.10;99688.55;1730325;80;20099;-82
2021/08/27 12:00:36;;;;;;;;;;;;;;;20.03;75.50;99681.13;1756673;80;20202;-82
2021/08/27 12:03:02;;;;;;;;;;;;;;;20.12;73.78;99682.97;1758789;80;20172;-82
2021/08/27 12:05:27;;;;;;;;;;;;;;;20.14;72.09;99689.44;1746209;80;21967;-82
2021/08/27 12:08:02;;;;;;;;;;;;;;;20.05;72.58;99683.58;1760036;80;20514;-82
2021/08/27 12:10:32;;;;;;;;;;;;;;;20.12;72.47;99683.47;1754200;80;20922;-82
2021/08/27 12:12:59;;;;;;;;;;;;;;;20.09;72.42;99684.77;1758288;80;20174;-82
2021/08/27 12:15:30;;;;;;;;;;;;;;;20.07;73.61;99684.16;1754670;80;20607;-82
2021/08/27 12:18:07;;;;;;;;;;;;;;;20.02;72.53;99684.84;1758199;79;20181;-82
2021/08/27 12:20:45;;;;;;;;;;;;;;;19.93;72.13;99683.55;1757644;80;21033;-82
2021/08/27 12:23:19;;;;;;;;;;;;;;;19.85;73.15;99686.03;1761077;79;20519;-82
2021/08/27 12:25:53;;;;;;;;;;;;;;;19.81;72.82;99693.41;1759741;80;20204;-82
2021/08/27 12:28:20;;;;;;;;;;;;;;;19.69;73.95;99699.52;1758352;80;20153;-82
2021/08/27 12:30:51;;;;;;;;;;;;;;;19.70;73.86;99702.51;1752547;80;22426;-82
2021/08/27 12:33:19;;;;;;;;;;;;;;;19.52;73.58;99699.87;1764997;80;20112;-82
2021/08/27 12:35:44;;;;;;;;;;;;;;;19.44;73.21;99704.20;1760583;80;20489;-83
2021/08/27 12:38:10;;;;;;;;;;;;;;;19.48;73.57;99702.69;1717989;80;20545;-84
2021/08/27 12:40:36;;;;;;;;;;;;;;;19.43;74.33;99707.38;1758715;80;20286;-82
2021/08/27 12:43:09;;;;;;;;;;;;;;;19.43;73.41;99702.56;1759937;80;21373;-82
2021/08/27 12:45:52;;;;;;;;;;;;;;;19.29;74.25;99700.03;1728513;80;20212;-83